Time;durP1;ratioP1;P1;durP2;ratioP2;P2;SDS_P1;SDS_P2;PMS_P1;PMS_P2;Temp;Humidity;BMP_temperature;BMP_pressure;BME280_temperature;BME280_humidity;BME280_pressure;Samples;Min_cycle;Max_cycle;Signal;HPM_P1;HPM_P2
2021/12/31 00:02:17;;;;;;;5.33;2.93;;;5.30;99.90;5.00;97252.00;;;;5028658;28;20312;-78
2021/12/31 00:05:08;;;;;;;3.23;2.43;;;5.30;99.90;5.20;97259.00;;;;5022117;28;20645;-79
2021/12/31 00:07:57;;;;;;;2.50;2.30;;;5.30;99.90;5.20;97259.00;;;;5040845;28;20240;-78
2021/12/31 00:10:46;;;;;;;2.30;2.07;;;5.40;99.90;4.60;97240.00;;;;5027677;28;20201;-79
2021/12/31 00:13:37;;;;;;;5.17;2.10;;;5.30;99.90;4.90;97245.00;;;;5033951;28;20202;-79
2021/12/31 00:16:26;;;;;;;2.03;1.83;;;5.20;99.90;5.10;97249.00;;;;5036253;28;20210;-78
2021/12/31 00:19:17;;;;;;;2.23;2.03;;;4.00;99.90;4.90;97256.00;;;;5033373;28;20229;-78
2021/12/31 00:22:26;;;;;;;2.27;1.93;;;5.20;99.90;4.70;97244.00;;;;5033440;28;20225;-78
2021/12/31 00:25:16;;;;;;;1.93;1.60;;;5.10;99.90;4.90;97242.00;;;;5033550;28;20213;-78
2021/12/31 00:28:05;;;;;;;3.63;2.20;;;5.10;99.90;5.00;97241.00;;;;5034113;28;20675;-78
2021/12/31 00:30:56;;;;;;;11.47;1.90;;;5.10;99.90;5.00;97248.00;;;;5032899;28;20216;-78
2021/12/31 00:33:45;;;;;;;4.33;2.07;;;5.20;99.90;4.70;97252.00;;;;5023122;28;20216;-78
2021/12/31 00:36:41;;;;;;;3.50;2.33;;;5.10;99.90;4.70;97259.00;;;;5032811;28;20213;-79
2021/12/31 00:39:30;;;;;;;2.83;2.10;;;4.70;99.90;4.80;97254.00;;;;5032481;28;20193;-78
2021/12/31 00:42:20;;;;;;;1.70;1.47;;;5.10;99.90;4.70;97257.00;;;;5031418;28;20237;-79
2021/12/31 00:45:13;;;;;;;1.90;1.60;;;5.00;99.90;4.80;97252.00;;;;5024100;28;20462;-78
2021/12/31 00:48:04;;;;;;;1.70;1.60;;;5.00;99.90;4.80;97259.00;;;;5025191;28;20243;-78
2021/12/31 00:50:53;;;;;;;2.03;1.73;;;5.00;99.90;4.80;97249.00;;;;5032137;28;20216;-77
2021/12/31 00:53:41;;;;;;;2.23;2.03;;;5.00;99.90;4.80;97245.00;;;;5035050;28;20209;-77
2021/12/31 00:56:31;;;;;;;2.00;1.80;;;5.00;99.90;4.90;97239.00;;;;5024394;28;20206;-78
2021/12/31 00:59:20;;;;;;;7.23;2.13;;;5.00;99.90;4.80;97240.00;;;;5034496;28;20202;-77
2021/12/31 01:02:11;;;;;;;1.60;1.50;;;5.00;99.90;4.60;97266.00;;;;5032151;28;20232;-77
2021/12/31 01:05:03;;;;;;;3.43;1.60;;;5.00;99.90;4.70;97252.00;;;;5024530;28;20198;-77
2021/12/31 01:07:52;;;;;;;2.10;1.90;;;5.00;99.90;4.90;97256.00;;;;5030485;28;20462;-77
2021/12/31 01:10:41;;;;;;;2.87;2.17;;;5.00;99.90;5.00;97255.00;;;;5038173;28;20205;-77
2021/12/31 01:13:32;;;;;;;1.70;1.47;;;5.20;99.90;4.80;97252.00;;;;5036021;28;20220;-78
2021/12/31 01:16:23;;;;;;;1.50;1.40;;;5.10;99.90;4.90;97263.00;;;;5044587;28;20203;-77
2021/12/31 01:22:24;;;;;;;1.03;0.97;;;5.10;99.90;4.20;97275.00;;;;5041141;28;20232;-76
2021/12/31 01:25:14;;;;;;;1.53;1.27;;;4.90;99.90;4.40;97268.00;;;;5034551;28;20197;-77
2021/12/31 01:28:03;;;;;;;2.37;1.43;;;4.80;99.90;4.70;97269.00;;;;5035189;28;20209;-77
2021/12/31 01:30:52;;;;;;;1.70;1.60;;;4.80;99.90;4.80;97265.00;;;;5036506;28;20208;-77
2021/12/31 01:33:41;;;;;;;1.57;1.47;;;4.80;99.90;4.90;97272.00;;;;5026590;28;20586;-77
2021/12/31 01:36:30;;;;;;;1.93;1.30;;;4.90;99.90;4.60;97272.00;;;;5024605;28;20212;-78
2021/12/31 01:39:23;;;;;;;2.80;1.20;;;4.90;99.90;4.70;97286.00;;;;5033170;28;20198;-77
2021/12/31 01:42:14;;;;;;;4.40;1.30;;;3.60;99.90;4.70;97284.00;;;;5034144;28;20225;-78
2021/12/31 01:45:10;;;;;;;2.30;1.70;;;5.00;99.90;4.80;97293.00;;;;5033800;28;20223;-78
2021/12/31 01:48:08;;;;;;;1.27;1.17;;;4.90;99.90;4.80;97286.00;;;;5030309;28;20284;-77
2021/12/31 01:50:57;;;;;;;2.57;1.57;;;4.90;99.90;4.80;97267.00;;;;5033301;28;20231;-78
2021/12/31 01:53:46;;;;;;;1.20;1.00;;;4.90;99.90;4.90;97265.00;;;;5032941;28;20206;-78
2021/12/31 01:56:38;;;;;;;1.73;1.63;;;5.00;99.90;4.80;97262.00;;;;5026809;28;20371;-78
2021/12/31 01:59:27;;;;;;;1.00;1.00;;;5.10;99.90;4.60;97274.00;;;;5027360;28;20205;-79
2021/12/31 02:02:17;;;;;;;2.07;1.50;;;5.00;99.90;4.70;97273.00;;;;5035170;28;20225;-77
2021/12/31 02:05:07;;;;;;;1.77;1.10;;;4.90;99.90;4.60;97270.00;;;;5030872;28;20212;-78
2021/12/31 02:07:58;;;;;;;3.27;2.07;;;4.90;99.90;4.50;97275.00;;;;5033980;28;20656;-78
2021/12/31 02:10:51;;;;;;;1.50;1.33;;;4.80;99.90;4.30;97265.00;;;;5030742;28;20193;-79
2021/12/31 02:13:41;;;;;;;1.73;1.20;;;4.80;99.90;4.60;97285.00;;;;5025688;28;20201;-78
2021/12/31 02:16:32;;;;;;;2.07;1.57;;;4.80;99.90;4.60;97270.00;;;;5033791;28;20308;-77
2021/12/31 02:19:27;;;;;;;1.90;1.30;;;4.80;99.90;4.60;97282.00;;;;5033255;28;20580;-80
2021/12/31 02:22:25;;;;;;;0.93;0.80;;;4.80;99.90;4.60;97282.00;;;;5032400;28;20229;-79
2021/12/31 02:25:14;;;;;;;2.07;1.83;;;4.80;99.90;4.60;97279.00;;;;5028595;28;20201;-79
2021/12/31 02:28:03;;;;;;;1.53;1.10;;;4.40;99.90;4.60;97281.00;;;;5031323;28;20605;-78
2021/12/31 02:30:54;;;;;;;1.10;1.00;;;4.80;99.90;4.40;97278.00;;;;5033488;28;20203;-78
2021/12/31 02:33:44;;;;;;;1.87;1.10;;;4.80;99.90;4.30;97293.00;;;;5024603;28;20215;-77
2021/12/31 02:36:32;;;;;;;1.97;1.03;;;4.70;99.90;4.30;97283.00;;;;5032574;28;20228;-77
2021/12/31 02:39:23;;;;;;;1.57;1.37;;;4.70;99.90;4.40;97271.00;;;;5041058;28;20193;-77
2021/12/31 02:42:13;;;;;;;3.27;1.30;;;4.60;99.90;4.50;97281.00;;;;5032943;28;20225;-77
2021/12/31 02:45:02;;;;;;;1.30;0.80;;;4.60;99.90;4.20;97279.00;;;;5041515;28;20197;-77
2021/12/31 02:47:51;;;;;;;0.70;0.70;;;4.60;99.90;4.40;97286.00;;;;5035915;28;20232;-78
2021/12/31 02:50:43;;;;;;;1.93;0.80;;;3.30;99.90;4.50;97282.00;;;;5038388;28;20205;-78
2021/12/31 02:53:37;;;;;;;2.07;1.13;;;4.60;99.90;4.50;97280.00;;;;5051731;28;20294;-78
2021/12/31 02:56:29;;;;;;;2.60;1.10;;;4.70;99.90;4.40;97279.00;;;;5025602;28;20197;-78
2021/12/31 02:59:18;;;;;;;1.27;0.80;;;4.70;99.90;4.20;97282.00;;;;5035522;28;20215;-78
2021/12/31 03:02:08;;;;;;;4.33;0.80;;;4.60;99.90;4.20;97283.00;;;;5037640;28;20214;-78
2021/12/31 03:04:58;;;;;;;2.03;1.20;;;4.50;99.90;4.30;97275.00;;;;5031387;28;20208;-78
2021/12/31 03:07:49;;;;;;;0.60;0.60;;;3.90;99.90;4.20;97269.00;;;;5041633;28;20683;-78
2021/12/31 03:10:39;;;;;;;0.50;0.50;;;4.60;99.90;3.90;97272.00;;;;5034484;28;20213;-78
2021/12/31 03:13:31;;;;;;;1.33;0.83;;;2.40;99.90;3.90;97276.00;;;;5049343;28;20208;-78
2021/12/31 03:16:22;;;;;;;0.60;0.60;;;2.20;99.90;3.90;97290.00;;;;5034790;28;20208;-78
2021/12/31 03:19:13;;;;;;;0.90;0.77;;;4.30;99.90;3.60;97277.00;;;;5038992;28;20201;-77
2021/12/31 03:22:03;;;;;;;0.80;0.80;;;3.80;99.90;3.80;97274.00;;;;5039521;28;20235;-77
2021/12/31 03:24:52;;;;;;;3.40;1.10;;;4.10;99.90;4.00;97273.00;;;;5037723;28;20436;-77
2021/12/31 03:27:41;;;;;;;0.77;0.70;;;4.20;99.90;3.90;97275.00;;;;5043226;28;20585;-77
2021/12/31 03:30:32;;;;;;;0.60;0.60;;;4.20;99.90;3.60;97269.00;;;;5039702;28;20419;-76
2021/12/31 03:33:21;;;;;;;4.43;0.47;;;4.10;99.90;3.60;97268.00;;;;5046334;28;20197;-76
2021/12/31 03:36:10;;;;;;;0.80;0.80;;;4.10;99.90;3.70;97272.00;;;;5049589;28;20213;-76
2021/12/31 03:38:59;;;;;;;0.77;0.70;;;4.10;99.90;4.00;97269.00;;;;5039606;28;20772;-77
2021/12/31 03:41:47;;;;;;;1.57;0.97;;;4.20;99.90;4.20;97282.00;;;;5035780;28;20696;-78
2021/12/31 03:44:36;;;;;;;2.13;1.03;;;3.50;99.90;3.50;97257.00;;;;5038122;28;20232;-78
2021/12/31 03:47:27;;;;;;;1.33;1.23;;;4.20;99.90;3.70;97270.00;;;;5029265;28;20202;-78
2021/12/31 03:50:15;;;;;;;2.50;1.10;;;4.10;99.90;3.80;97277.00;;;;5039895;28;20835;-78
2021/12/31 03:53:05;;;;;;;3.23;0.90;;;4.20;99.90;3.60;97261.00;;;;5033222;28;20193;-78
2021/12/31 03:55:54;;;;;;;1.20;0.87;;;4.10;99.90;3.30;97278.00;;;;5042273;28;20429;-78
2021/12/31 03:58:42;;;;;;;1.30;1.10;;;4.00;99.90;3.30;97273.00;;;;5042159;28;20197;-78
2021/12/31 04:01:31;;;;;;;0.57;0.57;;;3.90;99.90;3.30;97279.00;;;;5039168;28;20464;-77
2021/12/31 04:04:22;;;;;;;1.07;0.67;;;3.80;99.90;3.50;97276.00;;;;5029932;28;20225;-77
2021/12/31 04:07:11;;;;;;;0.80;0.80;;;3.80;99.90;3.80;97282.00;;;;5041119;28;20433;-77
2021/12/31 04:09:59;;;;;;;0.80;0.80;;;3.90;99.90;3.40;97291.00;;;;5036809;28;20209;-76
2021/12/31 04:12:48;;;;;;;2.17;0.80;;;4.00;99.90;3.60;97276.00;;;;5042354;28;20479;-77
2021/12/31 04:15:37;;;;;;;1.93;0.87;;;3.90;99.90;3.60;97277.00;;;;5034067;28;20597;-77
2021/12/31 04:18:26;;;;;;;1.30;1.20;;;3.90;99.90;3.80;97289.00;;;;5027170;28;20440;-77
2021/12/31 04:21:19;;;;;;;1.27;1.10;;;4.00;99.90;3.30;97296.00;;;;5034494;28;21050;-77
2021/12/31 04:24:14;;;;;;;1.03;0.73;;;4.00;99.90;3.60;97285.00;;;;5032883;28;20221;-77
2021/12/31 04:27:05;;;;;;;1.50;0.70;;;3.90;99.90;3.50;97291.00;;;;5025686;28;20439;-78
2021/12/31 04:29:53;;;;;;;1.23;1.07;;;3.90;99.90;3.20;97282.00;;;;5030726;28;20216;-77
2021/12/31 04:32:45;;;;;;;0.60;0.60;;;3.80;99.90;3.10;97279.00;;;;5032224;28;20234;-76
2021/12/31 04:35:34;;;;;;;0.77;0.77;;;3.70;99.90;3.10;97285.00;;;;5024889;28;20428;-77
2021/12/31 04:38:24;;;;;;;0.63;0.63;;;3.60;99.90;3.40;97297.00;;;;5022460;28;20432;-77
2021/12/31 04:41:13;;;;;;;8.30;0.70;;;3.60;99.90;3.30;97283.00;;;;5029769;28;20444;-77
2021/12/31 04:44:02;;;;;;;0.70;0.70;;;3.80;99.90;3.30;97290.00;;;;5033942;28;20840;-78
2021/12/31 04:46:51;;;;;;;0.90;0.90;;;3.70;99.90;3.60;97306.00;;;;5029551;28;20425;-78
2021/12/31 04:49:40;;;;;;;2.97;1.27;;;3.80;99.90;4.00;97295.00;;;;5025854;28;20522;-79
2021/12/31 04:52:29;;;;;;;1.20;1.00;;;3.90;99.90;4.00;97292.00;;;;5030229;28;20455;-79
2021/12/31 04:55:19;;;;;;;0.60;0.60;;;4.40;99.90;4.00;97293.00;;;;5041851;28;20443;-79
2021/12/31 04:58:08;;;;;;;0.57;0.57;;;4.20;99.90;3.90;97288.00;;;;5022075;28;20212;-79
2021/12/31 05:00:57;;;;;;;0.50;0.50;;;4.20;99.90;4.10;97297.00;;;;5031834;28;20224;-77
2021/12/31 05:03:46;;;;;;;0.63;0.63;;;4.30;99.90;3.60;97294.00;;;;5022154;28;20549;-77
2021/12/31 05:06:34;;;;;;;0.50;0.50;;;4.30;99.90;3.30;97291.00;;;;5033758;28;20198;-78
2021/12/31 05:09:23;;;;;;;1.10;1.00;;;4.10;99.90;3.70;97281.00;;;;5030407;28;20209;-78
2021/12/31 05:12:20;;;;;;;4.20;0.90;;;4.00;99.90;3.70;97276.00;;;;5030221;28;20452;-77
2021/12/31 05:15:10;;;;;;;0.70;0.70;;;4.00;99.90;3.60;97286.00;;;;5031855;28;20292;-77
2021/12/31 05:17:59;;;;;;;0.80;0.80;;;4.00;99.90;3.10;97271.00;;;;5019772;28;20198;-77
2021/12/31 05:20:48;;;;;;;1.60;0.93;;;3.80;99.90;3.20;97279.00;;;;5033461;28;20212;-77
2021/12/31 05:23:37;;;;;;;0.93;0.80;;;3.70;99.90;3.30;97283.00;;;;5033799;28;20225;-77
2021/12/31 05:26:26;;;;;;;1.17;1.00;;;3.70;99.90;3.60;97286.00;;;;5031325;28;20806;-78
2021/12/31 05:29:16;;;;;;;1.23;1.13;;;3.80;99.90;3.70;97294.00;;;;5031189;28;20208;-77
2021/12/31 05:32:06;;;;;;;1.70;1.00;;;3.90;99.90;3.50;97291.00;;;;5034119;28;20225;-77
2021/12/31 05:34:55;;;;;;;1.30;1.20;;;3.90;99.90;2.90;97294.00;;;;5033976;28;20564;-77
2021/12/31 05:37:44;;;;;;;1.63;0.77;;;3.70;99.90;2.90;97306.00;;;;5026240;28;20216;-78
2021/12/31 05:40:35;;;;;;;1.80;1.03;;;3.50;99.90;3.10;97300.00;;;;5019655;28;20420;-77
2021/12/31 05:43:24;;;;;;;1.07;0.90;;;3.50;99.90;3.10;97297.00;;;;5021394;28;20434;-77
2021/12/31 05:46:16;;;;;;;1.20;0.90;;;3.50;99.90;3.10;97311.00;;;;5018744;28;20446;-77
2021/12/31 05:49:05;;;;;;;0.90;0.90;;;3.50;99.90;2.90;97312.00;;;;5026836;28;20447;-76
2021/12/31 05:51:54;;;;;;;1.70;0.80;;;3.50;99.90;3.00;97299.00;;;;5031776;28;20444;-77
2021/12/31 05:54:43;;;;;;;1.40;1.30;;;3.50;99.90;3.10;97299.00;;;;5035597;28;20432;-77
2021/12/31 05:57:32;;;;;;;0.83;0.83;;;3.40;99.90;3.10;97294.00;;;;5020394;28;20413;-78
2021/12/31 06:00:21;;;;;;;6.93;1.10;;;3.40;99.90;3.30;97304.00;;;;5029726;28;20421;-77
2021/12/31 06:03:11;;;;;;;1.20;1.10;;;3.50;99.90;2.80;97295.00;;;;5027203;28;20439;-76
2021/12/31 06:06:00;;;;;;;1.17;0.93;;;3.40;99.90;2.90;97301.00;;;;5028191;28;20507;-78
2021/12/31 06:08:49;;;;;;;1.20;1.10;;;3.40;99.90;3.00;97298.00;;;;5041775;28;20432;-78
2021/12/31 06:11:38;;;;;;;0.90;0.90;;;3.30;99.90;2.90;97307.00;;;;5030983;28;20479;-77
2021/12/31 06:14:29;;;;;;;0.97;0.93;;;3.30;99.90;3.20;97307.00;;;;5028670;28;20465;-77
2021/12/31 06:17:25;;;;;;;0.97;0.70;;;3.40;99.90;3.30;97308.00;;;;5020148;28;20460;-77
2021/12/31 06:20:15;;;;;;;1.40;1.00;;;3.50;99.90;3.40;97315.00;;;;5027439;28;20431;-77
2021/12/31 06:23:04;;;;;;;1.33;1.23;;;3.60;99.90;3.50;97307.00;;;;5026457;28;20428;-77
2021/12/31 06:25:53;;;;;;;1.20;1.00;;;3.70;99.90;3.60;97306.00;;;;5028711;28;20460;-79
2021/12/31 06:28:42;;;;;;;1.30;1.20;;;3.80;99.90;3.60;97307.00;;;;5023597;28;20567;-79
2021/12/31 06:31:32;;;;;;;0.93;0.90;;;3.80;99.90;3.60;97318.00;;;;5033486;28;20221;-78
2021/12/31 06:34:21;;;;;;;0.67;0.67;;;3.80;99.90;3.20;97312.00;;;;5029918;28;20446;-79
2021/12/31 06:37:11;;;;;;;0.70;0.70;;;3.70;99.90;3.10;97311.00;;;;5033552;28;20210;-78
2021/12/31 06:40:04;;;;;;;1.13;1.07;;;3.60;99.90;2.80;97327.00;;;;5032238;28;20205;-79
2021/12/31 06:42:53;;;;;;;0.83;0.80;;;3.50;99.90;2.70;97323.00;;;;5026029;28;20735;-77
2021/12/31 06:45:42;;;;;;;0.97;0.80;;;3.30;99.90;2.80;97324.00;;;;5029333;28;21245;-79
2021/12/31 06:48:31;;;;;;;1.17;1.07;;;3.20;99.90;2.90;97322.00;;;;5025464;28;20428;-77
2021/12/31 06:51:20;;;;;;;1.53;1.43;;;3.20;99.90;3.00;97339.00;;;;5014163;28;20448;-77
2021/12/31 06:54:10;;;;;;;2.17;1.97;;;3.20;99.90;3.00;97340.00;;;;5036512;28;20796;-77
2021/12/31 06:56:59;;;;;;;3.47;3.17;;;3.20;99.90;3.20;97326.00;;;;5026018;28;20435;-77
2021/12/31 06:59:47;;;;;;;2.37;2.20;;;3.30;99.90;3.10;97335.00;;;;5025010;28;20986;-78
2021/12/31 07:02:36;;;;;;;3.63;2.30;;;3.30;99.90;3.00;97344.00;;;;5025747;28;20452;-77
2021/12/31 07:05:26;;;;;;;1.57;1.37;;;3.40;99.90;2.70;97342.00;;;;5025386;28;20468;-77
2021/12/31 07:08:14;;;;;;;1.43;1.23;;;3.30;99.90;2.90;97352.00;;;;5026395;28;20435;-77
2021/12/31 07:11:05;;;;;;;1.57;1.07;;;3.30;99.90;3.10;97355.00;;;;5026660;28;20458;-77
2021/12/31 07:13:53;;;;;;;1.27;1.17;;;3.40;99.90;3.10;97356.00;;;;5029877;28;20429;-78
2021/12/31 07:16:42;;;;;;;1.83;1.53;;;3.40;99.90;2.90;97358.00;;;;5022956;28;20421;-78
2021/12/31 07:19:31;;;;;;;1.73;1.40;;;3.40;99.90;2.20;97352.00;;;;5018777;28;20432;-77
2021/12/31 07:22:21;;;;;;;1.50;1.27;;;3.20;99.90;2.50;97353.00;;;;5029977;28;20809;-77
2021/12/31 07:25:10;;;;;;;5.37;3.10;;;3.10;99.90;2.80;97351.00;;;;5015195;28;20467;-78
2021/12/31 07:28:01;;;;;;;4.10;3.10;;;3.10;99.90;3.20;97357.00;;;;5028335;28;20798;-77
2021/12/31 07:30:51;;;;;;;1.90;1.80;;;3.30;99.90;2.70;97359.00;;;;5024674;28;20428;-77
2021/12/31 07:33:40;;;;;;;9.30;5.03;;;3.30;99.90;2.90;97357.00;;;;5033951;28;20845;-79
2021/12/31 07:36:29;;;;;;;2.37;2.17;;;4.00;99.90;2.60;97362.00;;;;5025523;28;20471;-77
2021/12/31 07:39:20;;;;;;;3.87;2.70;;;3.20;99.90;2.60;97356.00;;;;5032110;28;20428;-79
2021/12/31 07:42:09;;;;;;;1.33;1.23;;;3.20;99.90;2.50;97373.00;;;;5029504;28;20605;-77
2021/12/31 07:45:00;;;;;;;5.40;1.60;;;3.10;99.90;2.60;97371.00;;;;5027706;28;20838;-77
2021/12/31 07:47:48;;;;;;;2.50;2.10;;;3.10;99.90;2.70;97372.00;;;;5020383;28;20424;-77
2021/12/31 07:50:38;;;;;;;4.07;2.23;;;3.10;99.90;2.90;97374.00;;;;5027953;28;20424;-77
2021/12/31 07:53:27;;;;;;;1.43;1.33;;;3.20;99.90;2.60;97377.00;;;;5028696;28;20920;-76
2021/12/31 07:56:18;;;;;;;2.30;2.10;;;3.20;99.90;2.50;97375.00;;;;5031161;28;20463;-76
2021/12/31 07:59:07;;;;;;;0.70;0.70;;;3.20;99.90;2.40;97375.00;;;;5026596;28;20438;-76
2021/12/31 08:01:58;;;;;;;0.80;0.80;;;3.10;99.90;2.40;97382.00;;;;5026034;28;20464;-76
2021/12/31 08:05:11;;;;;;;8.57;6.30;;;3.10;99.90;2.80;97368.00;;;;5025911;28;20920;-75
2021/12/31 08:08:04;;;;;;;1.77;1.30;;;3.20;99.90;3.00;97378.00;;;;5018352;28;20433;-76
2021/12/31 08:10:53;;;;;;;2.53;1.30;;;3.30;99.90;3.00;97380.00;;;;5024298;28;20420;-76
2021/12/31 08:13:43;;;;;;;1.00;1.00;;;3.40;99.90;3.30;97387.00;;;;5022149;28;20420;-77
2021/12/31 08:16:32;;;;;;;1.73;1.63;;;3.50;99.90;3.60;97379.00;;;;5021644;28;20568;-76
2021/12/31 08:19:22;;;;;;;2.80;2.57;;;3.70;99.90;3.80;97389.00;;;;5025406;28;21015;-76
2021/12/31 08:22:11;;;;;;;4.70;2.67;;;3.90;99.90;3.70;97392.00;;;;5023934;28;20444;-77
2021/12/31 08:25:00;;;;;;;3.70;2.80;;;4.00;99.90;3.80;97385.00;;;;5025080;28;20464;-76
2021/12/31 08:27:50;;;;;;;2.73;2.50;;;4.10;99.90;3.70;97386.00;;;;5025023;28;20428;-77
2021/12/31 08:30:39;;;;;;;2.10;1.90;;;4.10;99.90;3.20;97377.00;;;;5021884;28;20351;-76
2021/12/31 08:33:28;;;;;;;1.70;1.60;;;3.90;99.90;2.90;97381.00;;;;5024717;28;20202;-76
2021/12/31 08:36:18;;;;;;;1.73;1.63;;;3.70;99.90;3.20;97385.00;;;;5023136;28;20424;-76
2021/12/31 08:39:09;;;;;;;3.03;2.10;;;3.60;99.90;3.20;97377.00;;;;5026067;28;20544;-76
2021/12/31 08:42:00;;;;;;;3.03;2.20;;;3.60;99.90;3.60;97387.00;;;;5025230;28;20446;-78
2021/12/31 08:44:49;;;;;;;3.73;3.00;;;3.70;99.90;3.90;97390.00;;;;5013993;28;20943;-77
2021/12/31 08:47:38;;;;;;;11.93;2.47;;;3.90;99.90;3.80;97391.00;;;;5025929;28;20419;-77
2021/12/31 08:50:28;;;;;;;1.03;1.00;;;4.10;99.90;3.40;97384.00;;;;5015520;28;20595;-76
2021/12/31 08:53:18;;;;;;;2.90;2.37;;;4.00;99.90;3.90;97384.00;;;;5028186;28;20209;-77
2021/12/31 08:56:07;;;;;;;3.47;2.90;;;4.10;99.90;4.10;97381.00;;;;5025205;28;20432;-77
2021/12/31 08:58:56;;;;;;;4.07;2.80;;;4.30;99.90;4.20;97377.00;;;;5026392;28;20208;-77
2021/12/31 09:01:44;;;;;;;3.03;2.27;;;4.40;99.90;4.10;97364.00;;;;5026349;28;20243;-75
2021/12/31 09:04:34;;;;;;;5.00;2.47;;;4.50;99.90;4.20;97382.00;;;;5027349;28;20461;-75
2021/12/31 09:07:23;;;;;;;10.30;6.67;;;4.50;99.90;4.50;97371.00;;;;5026174;28;20217;-75
2021/12/31 09:10:14;;;;;;;5.20;2.90;;;4.60;99.90;4.70;97379.00;;;;5027172;28;20201;-75
2021/12/31 09:13:03;;;;;;;2.80;2.50;;;4.70;99.90;4.90;97380.00;;;;5034206;28;20207;-75
2021/12/31 09:15:52;;;;;;;3.13;2.10;;;5.00;99.90;5.20;97380.00;;;;5014433;28;20205;-74
2021/12/31 09:18:41;;;;;;;2.67;2.23;;;5.20;99.90;5.40;97372.00;;;;5020006;28;20201;-75
2021/12/31 09:21:30;;;;;;;3.10;2.40;;;5.40;99.90;5.60;97375.00;;;;5026228;28;20366;-74
2021/12/31 09:24:19;;;;;;;6.00;2.47;;;5.50;99.90;5.70;97375.00;;;;5019308;28;20205;-74
2021/12/31 09:27:10;;;;;;;7.63;3.37;;;5.70;99.90;5.90;97376.00;;;;5024643;28;20232;-75
2021/12/31 09:29:58;;;;;;;2.20;2.00;;;5.80;99.90;6.10;97366.00;;;;5026315;28;20677;-74
2021/12/31 09:32:47;;;;;;;3.50;3.20;;;6.00;99.90;6.40;97374.00;;;;5027950;28;20223;-75
2021/12/31 09:35:36;;;;;;;3.73;2.87;;;6.10;99.90;6.40;97369.00;;;;5024171;28;20659;-75
2021/12/31 09:38:25;;;;;;;5.50;4.23;;;6.30;99.90;6.40;97376.00;;;;5016723;28;20207;-74
2021/12/31 09:41:14;;;;;;;5.90;3.40;;;6.40;99.90;6.50;97378.00;;;;5026656;28;20700;-77
2021/12/31 09:44:05;;;;;;;4.10;2.93;;;6.40;99.90;6.30;97370.00;;;;5030824;28;20213;-79
2021/12/31 09:46:53;;;;;;;3.80;2.63;;;6.40;99.90;6.50;97368.00;;;;5031759;28;20226;-77
2021/12/31 09:49:42;;;;;;;4.17;2.37;;;6.50;99.90;6.40;97377.00;;;;5040669;28;20305;-77
2021/12/31 09:52:33;;;;;;;3.27;2.60;;;6.50;99.90;6.20;97375.00;;;;5035945;28;20731;-78
2021/12/31 09:55:38;;;;;;;3.03;2.73;;;6.50;99.90;6.30;97376.00;;;;5026394;28;20208;-77
2021/12/31 09:58:28;;;;;;;6.33;2.47;;;6.60;99.90;6.30;97369.00;;;;5031773;28;20212;-77
2021/12/31 10:01:19;;;;;;;2.63;2.40;;;6.50;99.90;6.40;97365.00;;;;5033661;28;20221;-78
2021/12/31 10:04:08;;;;;;;2.40;2.20;;;6.50;99.90;6.50;97364.00;;;;5036139;28;20208;-77
2021/12/31 10:07:08;;;;;;;8.90;5.37;;;6.60;99.90;6.80;97367.00;;;;5036091;28;20239;-78
2021/12/31 10:10:10;;;;;;;9.03;5.90;;;6.60;99.90;7.20;97362.00;;;;5035691;28;20204;-77
2021/12/31 10:13:00;;;;;;;62.80;31.00;;;6.80;99.90;7.30;97356.00;;;;5031349;28;20220;-79
2021/12/31 10:15:51;;;;;;;75.00;32.87;;;7.00;99.90;7.70;97364.00;;;;5023878;28;20217;-78
2021/12/31 10:18:41;;;;;;;79.00;42.13;;;7.20;99.90;7.70;97356.00;;;;5038658;28;20221;-78
2021/12/31 10:21:38;;;;;;;39.30;19.73;;;7.40;99.90;7.80;97352.00;;;;5037120;28;20228;-78
2021/12/31 10:24:34;;;;;;;30.40;16.97;;;7.50;99.90;8.30;97349.00;;;;5033788;28;20197;-77
2021/12/31 10:27:23;;;;;;;11.13;7.33;;;7.70;99.90;9.00;97352.00;;;;5030627;28;20229;-77
2021/12/31 10:30:13;;;;;;;9.73;5.00;;;8.50;99.90;9.30;97344.00;;;;5017540;28;20216;-77
2021/12/31 10:33:01;;;;;;;3.60;3.23;;;9.50;99.90;9.10;97341.00;;;;5029227;28;20221;-77
2021/12/31 10:35:52;;;;;;;4.07;3.10;;;10.00;99.90;9.50;97349.00;;;;5025924;28;20194;-78
2021/12/31 10:38:43;;;;;;;4.00;3.00;;;10.40;99.90;9.70;97337.00;;;;5026825;28;20193;-77
2021/12/31 10:41:32;;;;;;;4.20;2.70;;;10.70;99.90;9.90;97334.00;;;;5026589;28;20229;-76
2021/12/31 10:44:21;;;;;;;3.83;2.97;;;10.90;99.90;9.30;97320.00;;;;5039591;28;20208;-75
2021/12/31 10:47:12;;;;;;;3.03;2.60;;;11.10;99.90;9.90;97326.00;;;;5036340;28;20217;-77
2021/12/31 10:50:12;;;;;;;3.17;2.97;;;11.00;99.90;10.40;97314.00;;;;5031677;28;20193;-77
2021/12/31 10:53:09;;;;;;;3.50;2.67;;;11.10;99.90;9.70;97307.00;;;;5031161;28;20213;-79
2021/12/31 10:56:07;;;;;;;4.00;3.03;;;11.10;99.90;10.10;97314.00;;;;5044436;28;20202;-79
2021/12/31 10:58:59;;;;;;;3.60;2.83;;;10.90;99.90;10.80;97311.00;;;;5043878;28;20205;-78
2021/12/31 11:01:49;;;;;;;6.70;3.10;;;11.00;99.90;10.90;97304.00;;;;5042899;28;20213;-78
2021/12/31 11:04:38;;;;;;;3.47;2.97;;;11.20;99.90;11.20;97319.00;;;;5035522;28;20197;-79
2021/12/31 11:07:28;;;;;;;3.17;2.23;;;11.50;99.90;10.80;97298.00;;;;5044849;28;20231;-77
2021/12/31 11:10:26;;;;;;;2.90;2.60;;;11.50;99.90;10.70;97292.00;;;;5041451;28;20473;-78
2021/12/31 11:13:19;;;;;;;4.47;3.00;;;11.50;99.90;11.00;97297.00;;;;5052830;28;20193;-78
2021/12/31 11:16:09;;;;;;;5.53;2.30;;;11.50;99.90;11.30;97307.00;;;;5048324;28;20212;-78
2021/12/31 11:18:58;;;;;;;2.90;2.70;;;11.70;99.90;11.90;97305.00;;;;5033323;28;20209;-78
2021/12/31 11:21:51;;;;;;;4.37;2.73;;;11.80;99.90;11.80;97299.00;;;;5042326;28;20290;-78
2021/12/31 11:24:40;;;;;;;2.70;2.50;;;12.10;99.90;12.50;97296.00;;;;5040304;28;20208;-77
2021/12/31 11:27:57;;;;;;;4.53;2.60;;;12.50;99.90;12.80;97291.00;;;;5044717;28;20225;-78
2021/12/31 11:30:48;;;;;;;2.87;2.47;;;12.80;99.90;12.10;97281.00;;;;5038435;28;20212;-76
2021/12/31 11:33:37;;;;;;;4.83;2.70;;;12.90;99.90;12.40;97282.00;;;;5029744;28;20206;-77
2021/12/31 11:36:39;;;;;;;2.43;2.23;;;12.80;99.90;12.60;97275.00;;;;5031657;28;20205;-77
2021/12/31 11:39:30;;;;;;;3.97;2.43;;;12.90;99.90;12.70;97288.00;;;;5032721;28;20207;-77
2021/12/31 11:42:19;;;;;;;3.50;2.57;;;12.90;99.90;12.90;97281.00;;;;5031362;28;20232;-77
2021/12/31 11:45:15;;;;;;;5.10;2.97;;;13.10;99.90;12.20;97266.00;;;;5042409;28;20600;-78
2021/12/31 11:48:42;;;;;;;2.93;2.47;;;13.30;99.90;13.20;97272.00;;;;5051260;28;20607;-78
2021/12/31 11:51:38;;;;;;;2.90;2.33;;;13.40;99.90;13.50;97277.00;;;;5038428;28;20217;-80
2021/12/31 11:54:29;;;;;;;3.50;2.53;;;13.50;99.90;13.40;97265.00;;;;5039524;28;20779;-80
2021/12/31 11:57:20;;;;;;;2.63;2.43;;;13.70;99.90;13.20;97270.00;;;;5044906;28;20571;-80
2021/12/31 12:00:26;;;;;;;3.93;2.43;;;14.10;99.90;13.70;97267.00;;;;5027235;28;20201;-78
2021/12/31 12:03:30;;;;;;;3.70;1.93;;;14.40;99.90;13.80;97254.00;;;;5028589;28;20190;-78
2021/12/31 12:06:54;;;;;;;2.87;2.53;;;14.80;99.90;14.90;97258.00;;;;5034312;28;20205;-79
2021/12/31 12:10:29;;;;;;;2.90;2.40;;;14.90;99.90;14.50;97243.00;;;;5026547;28;20201;-78
2021/12/31 12:13:26;;;;;;;;;;;15.30;99.90;15.60;97258.00;;;;5002908;28;20078;-79
2021/12/31 12:16:48;;;;;;;;;;;16.00;99.90;15.50;97246.00;;;;5030736;28;19924;-81
2021/12/31 12:20:10;;;;;;;2.35;2.15;;;16.30;99.90;16.50;97247.00;;;;5034747;28;20927;-79
2021/12/31 12:22:59;;;;;;;2.47;2.10;;;17.10;99.90;15.70;97239.00;;;;5032659;28;20221;-78
2021/12/31 12:25:48;;;;;;;3.70;2.53;;;17.30;99.90;16.60;97233.00;;;;5032900;28;20202;-79
2021/12/31 12:28:37;;;;;;;4.50;2.07;;;17.40;99.90;16.00;97232.00;;;;5036027;28;20224;-80
2021/12/31 12:31:28;;;;;;;2.17;1.97;;;17.90;99.90;15.80;97232.00;;;;5033509;28;20229;-79
2021/12/31 12:34:29;;;;;;;3.73;2.00;;;17.70;99.90;14.70;97212.00;;;;5032651;28;20194;-80
2021/12/31 12:37:27;;;;;;;3.40;2.60;;;17.10;99.90;14.50;97212.00;;;;5028722;28;20338;-79
2021/12/31 12:40:16;;;;;;;5.47;2.50;;;16.50;99.90;15.10;97215.00;;;;5028454;28;20211;-80
2021/12/31 12:43:07;;;;;;;2.30;2.10;;;16.10;99.90;14.30;97208.00;;;;5028854;28;20205;-79
2021/12/31 12:46:01;;;;;;;2.70;2.20;;;16.00;99.90;14.00;97208.00;;;;5031119;28;20382;-78
2021/12/31 12:48:53;;;;;;;2.77;2.33;;;15.70;99.90;14.90;97215.00;;;;5030022;28;20213;-80
2021/12/31 12:51:43;;;;;;;3.27;2.73;;;15.60;99.90;14.90;97222.00;;;;5032503;28;20331;-79
2021/12/31 12:54:33;;;;;;;3.60;2.70;;;15.90;99.90;15.20;97215.00;;;;5034137;28;20201;-80
2021/12/31 12:57:25;;;;;;;3.13;2.83;;;16.00;99.90;15.20;97209.00;;;;5031207;28;20216;-81
2021/12/31 13:00:16;;;;;;;1.67;1.47;;;16.20;99.90;14.40;97214.00;;;;5037219;28;20206;-79